Sulphur Springs, TX

2:11 AM CDT on April 24, 2018 (GMT -0500)
Sulphur Springs Municipal

Weather History for KSLR - March, 2014

Change the Weather History Date:

Wednesday, March 5, 2014

  Actual Average (KGVT) Record (KGVT)
Temperature  
Mean Temperature 38 °F -  
Max Temperature 49 °F 60 °F 82 °F (2009)
Min Temperature 28 °F 44 °F 24 °F (2015)
Degree Days  
Heating Degree Days 26    
Moisture  
Dew Point 31 °F    
Average Humidity 75    
Maximum Humidity 100    
Minimum Humidity 49    
Precipitation  
Precipitation 0.00 in - - ()
Sea Level Pressure  
Sea Level Pressure 30.11 in    
Wind  
Wind Speed 4 mph (NE)    
Max Wind Speed 12 mph    
Max Gust Speed -    
Visibility 8 miles    
Events      
Averages and records for this station are not official NWS values.
T = Trace of Precipitation, MM = Missing Value Source: NWS Daily Summary

Daily Weather History Graph

Daily Weather History Graph

Search for Another Location

Airport or City:

Astronomy

Mar. 05, 2014 Rise Set
Actual Time 6:45 AM CST 6:22 PM CST
Civil Twilight 6:20 AM CST 6:47 PM CST
Nautical Twilight 5:52 AM CST 7:16 PM CST
Astronomical Twilight 5:23 AM CST 7:44 PM CST
Moon 9:27 AM CST (3/5) 11:15 PM CST (3/5)
Length of Visible Light 12h 26m
Length of Day
11h 37m
Waxing Crescent, 23% of the Moon is Illuminated
Mar 5
Waxing Crescent
Mar 8
First Quarter
Mar 16
Full
Mar 23
Last Quarter
Mar 30
New

Hourly Weather History & Observations

Time (CST) Temp. Windchill Dew Point Humidity Pressure Visibility Wind Dir Wind Speed Gust Speed Precip Events Conditions
12:15 AM 30.9 °F - 30.0 °F 96% 30.11 in 4.0 mi Calm Calm - N/A   Clear
12:35 AM 30.9 °F - 30.2 °F 97% 30.11 in 4.0 mi Calm Calm - N/A   Clear
12:55 AM 30.6 °F - 29.7 °F 96% 30.11 in 5.0 mi Calm Calm - N/A   Clear
1:15 AM 29.7 °F - 28.6 °F 96% 30.11 in 2.0 mi Calm Calm - N/A   Clear
1:35 AM 28.4 °F 22.2 °F 27.7 °F 97% 30.10 in 2.5 mi East 5.8 mph - N/A   Clear
1:55 AM 28.9 °F 23.9 °F 28.2 °F 97% 30.10 in 3.0 mi East 4.6 mph - N/A   Clear
2:15 AM 29.3 °F 25.6 °F 28.6 °F 97% 30.09 in 2.5 mi East 3.5 mph - N/A   Clear
2:30 AM 29.8 °F 24.9 °F 29.3 °F 98% 30.09 in 3.0 mi ESE 4.6 mph - N/A   Clear
2:55 AM 28.9 °F 21.9 °F 28.4 °F 98% 30.07 in 2.5 mi East 6.9 mph - N/A   Mist
3:15 AM 29.3 °F - 29.1 °F 99% 30.09 in 2.0 mi Calm Calm - N/A   Mist
3:35 AM 29.1 °F 25.4 °F 28.8 °F 99% 30.09 in 1.8 mi East 3.5 mph - N/A   Mist
3:55 AM 29.3 °F - 29.1 °F 99% 30.09 in 1.5 mi Calm Calm - N/A   Mist
4:15 AM 29.1 °F - 28.8 °F 99% 30.10 in 1.2 mi Calm Calm - N/A   Mist
4:35 AM 28.8 °F 23.7 °F 28.4 °F 99% 30.10 in 1.0 mi East 4.6 mph - N/A   Mist
4:55 AM 28.8 °F - 28.6 °F 99% 30.12 in 1.8 mi Calm Calm - N/A   Mist
5:15 AM 28.4 °F 20.4 °F 28.4 °F 100% 30.10 in 2.5 mi ESE 8.1 mph - N/A   Mist
5:35 AM 28.9 °F 21.1 °F 28.8 °F 99% 30.10 in 2.5 mi East 8.1 mph - N/A   Mist
5:55 AM 29.1 °F 22.1 °F 28.9 °F 99% 30.10 in 3.0 mi East 6.9 mph - N/A   Mist
6:15 AM 29.1 °F 20.0 °F 28.8 °F 99% 30.08 in 4.0 mi East 10.4 mph - N/A   Clear
6:35 AM 29.3 °F 22.3 °F 29.1 °F 99% 30.08 in 5.0 mi East 6.9 mph - N/A   Clear
6:55 AM 29.5 °F 23.4 °F 28.9 °F 98% 30.08 in 5.0 mi East 5.8 mph - N/A   Clear
7:10 AM 30.0 °F 26.5 °F 29.1 °F 96% 30.09 in 5.0 mi ENE 3.5 mph - N/A   Clear
7:35 AM 31.1 °F 23.7 °F 29.8 °F 95% 30.10 in 5.0 mi NNE 8.1 mph - N/A   Clear
7:55 AM 31.6 °F 26.0 °F 30.0 °F 94% 30.12 in 7.0 mi NNE 5.8 mph - N/A   Clear
8:15 AM 32.2 °F 26.7 °F 30.2 °F 92% 30.13 in 7.0 mi NE 5.8 mph - N/A   Clear
8:35 AM 32.5 °F 26.2 °F 30.0 °F 90% 30.14 in 7.0 mi East 6.9 mph - N/A   Clear
8:55 AM 34.0 °F 26.6 °F 30.7 °F 88% 30.13 in 10.0 mi East 9.2 mph - N/A   Clear
9:15 AM 35.2 °F 30.3 °F 30.6 °F 83% 30.13 in 10.0 mi East 5.8 mph - N/A   Clear
9:35 AM 36.7 °F 30.5 °F 30.4 °F 78% 30.13 in 10.0 mi ESE 8.1 mph - N/A   Clear
9:55 AM 37.6 °F 34.0 °F 30.2 °F 75% 30.14 in 10.0 mi SE 4.6 mph - N/A   Clear
10:15 AM 38.5 °F 33.4 °F 30.7 °F 74% 30.14 in 10.0 mi SSE 6.9 mph - N/A   Clear
10:35 AM 40.6 °F 36.0 °F 30.6 °F 67% 30.14 in 10.0 mi SE 6.9 mph - N/A   Clear
10:55 AM 42.4 °F 39.6 °F 30.6 °F 63% 30.14 in 10.0 mi SSE 4.6 mph - N/A   Clear
11:15 AM 43.7 °F 41.1 °F 30.6 °F 60% 30.13 in 10.0 mi SE 4.6 mph - N/A   Clear
11:35 AM 45.0 °F 42.6 °F 30.9 °F 58% 30.13 in 10.0 mi SE 4.6 mph - N/A   Clear
11:50 AM 45.7 °F 44.4 °F 31.3 °F 57% 30.13 in 10.0 mi SE 3.5 mph - N/A   Clear
12:15 PM 46.9 °F - 30.6 °F 53% 30.12 in 10.0 mi Calm Calm - N/A   Clear
12:35 PM 48.0 °F - 32.2 °F 54% 30.12 in 10.0 mi NW 5.8 mph - N/A   Clear
12:55 PM 47.3 °F - 30.9 °F 53% 30.12 in 10.0 mi NW 4.6 mph - N/A   Clear
1:15 PM 49.5 °F - 30.9 °F 49% 30.10 in 10.0 mi North 3.5 mph - N/A   Clear
1:35 PM 48.2 °F - 31.6 °F 53% 30.09 in 10.0 mi NNW 6.9 mph - N/A   Clear
1:55 PM 47.7 °F - 32.7 °F 56% 30.09 in 10.0 mi North 8.1 mph - N/A   Clear
2:15 PM 48.7 °F - 33.3 °F 55% 30.08 in 10.0 mi North 10.4 mph - N/A   Clear
2:35 PM 47.7 °F - 32.0 °F 55% 30.09 in 10.0 mi North 8.1 mph - N/A   Clear
2:55 PM 47.5 °F - 32.0 °F 55% 30.10 in 10.0 mi NNW 11.5 mph - N/A   Clear
3:15 PM 47.8 °F - 31.6 °F 53% 30.10 in 10.0 mi North 8.1 mph - N/A   Clear
3:35 PM 47.8 °F - 32.0 °F 54% 30.09 in 10.0 mi North 8.1 mph - N/A   Clear
3:55 PM 47.5 °F - 32.0 °F 55% 30.09 in 10.0 mi NNE 9.2 mph - N/A   Clear
4:15 PM 47.8 °F - 30.9 °F 52% 30.09 in 10.0 mi NE 5.8 mph - N/A   Clear
4:35 PM 47.7 °F - 32.0 °F 55% 30.08 in 10.0 mi NE 6.9 mph - N/A   Clear
4:55 PM 48.2 °F - 32.0 °F 54% 30.08 in 10.0 mi NE 4.6 mph - N/A   Clear
5:15 PM 48.4 °F - 31.5 °F 52% 30.07 in 10.0 mi NE 6.9 mph - N/A   Clear
5:35 PM 48.9 °F - 32.0 °F 52% 30.08 in 10.0 mi East 5.8 mph - N/A   Clear
5:55 PM 48.9 °F - 32.4 °F 53% 30.09 in 10.0 mi ESE 4.6 mph - N/A   Clear
6:15 PM 47.3 °F - 32.9 °F 57% 30.09 in 10.0 mi East 4.6 mph - N/A   Clear
6:35 PM 46.9 °F - 32.9 °F 58% 30.11 in 10.0 mi Calm Calm - N/A   Scattered Clouds
6:55 PM 46.4 °F - 32.9 °F 59% 30.11 in 10.0 mi Calm Calm - N/A   Clear
7:15 PM 44.8 °F - 33.1 °F 64% 30.11 in 10.0 mi Calm Calm - N/A   Clear
7:35 PM 43.2 °F 40.5 °F 37.0 °F 79% 30.12 in 10.0 mi NW 4.6 mph - N/A   Clear
7:55 PM 41.9 °F 40.0 °F 35.4 °F 78% 30.12 in 10.0 mi NNW 3.5 mph - N/A   Clear
8:15 PM 42.8 °F - 35.1 °F 74% 30.13 in 10.0 mi Calm Calm - N/A   Clear
8:35 PM 43.0 °F - 35.1 °F 74% 30.14 in 10.0 mi Calm Calm - N/A   Clear
8:55 PM 42.3 °F 39.4 °F 35.4 °F 77% 30.14 in 10.0 mi NNW 4.6 mph - N/A   Scattered Clouds
9:15 PM 43.2 °F 39.0 °F 34.9 °F 73% 30.15 in 10.0 mi NNW 6.9 mph - N/A   Scattered Clouds
9:35 PM 43.3 °F 39.2 °F 34.7 °F 72% 30.16 in 10.0 mi NNW 6.9 mph - N/A   Scattered Clouds
9:55 PM 43.0 °F 40.3 °F 34.7 °F 73% 30.17 in 10.0 mi NW 4.6 mph - N/A   Scattered Clouds
10:15 PM 42.6 °F 40.9 °F 34.7 °F 74% 30.18 in 10.0 mi NW 3.5 mph - N/A   Scattered Clouds
10:35 PM 43.3 °F 39.9 °F 33.8 °F 69% 30.18 in 10.0 mi NNW 5.8 mph - N/A   Scattered Clouds
10:55 PM 43.3 °F 39.2 °F 33.1 °F 67% 30.19 in 10.0 mi NW 6.9 mph - N/A   Scattered Clouds
11:15 PM 44.2 °F 38.8 °F 32.0 °F 62% 30.18 in 10.0 mi North 10.4 mph - N/A   Scattered Clouds
11:35 PM 44.6 °F 38.8 °F 31.1 °F 59% 30.19 in 10.0 mi North 11.5 mph - N/A   Scattered Clouds
11:55 PM 44.6 °F 38.8 °F 30.7 °F 58% 30.19 in 10.0 mi NNW 11.5 mph - N/A   Clear